createdAt,value
2018-12-24T00:02:13.016Z,8.77
2018-12-24T00:08:08.053Z,9.09
2018-12-24T00:14:03.017Z,8.5
2018-12-24T00:19:58.022Z,7.92
2018-12-24T00:25:53.014Z,8.12
2018-12-24T00:31:48.047Z,7.22
2018-12-24T00:37:43.044Z,6.76
2018-12-24T00:43:38.051Z,7.14
2018-12-24T00:49:33.082Z,7.99
2018-12-24T00:55:28.036Z,6.27
2018-12-24T01:01:23.062Z,5.41
2018-12-24T01:07:18.047Z,7.82
2018-12-24T01:13:13.059Z,7.09
2018-12-24T01:19:08.062Z,6.84
2018-12-24T01:25:03.106Z,6.69
2018-12-24T01:30:58.090Z,5.91
2018-12-24T01:36:53.072Z,6.47
2018-12-24T01:42:48.077Z,7.02
2018-12-24T01:48:43.089Z,6.51
2018-12-24T01:54:38.065Z,6.24
2018-12-24T02:00:33.092Z,5.73
2018-12-24T02:06:28.139Z,5.91
2018-12-24T02:12:23.076Z,6.77
2018-12-24T02:18:18.131Z,6.68
2018-12-24T02:24:13.080Z,6.15
2018-12-24T02:30:08.112Z,5.96
2018-12-24T02:36:03.087Z,6.74
2018-12-24T02:41:58.118Z,8.43
2018-12-24T02:47:53.117Z,7.11
2018-12-24T02:53:48.085Z,5.56
2018-12-24T02:59:43.104Z,5.96
2018-12-24T03:05:38.136Z,5.83
2018-12-24T03:11:33.109Z,6.23
2018-12-24T03:17:28.174Z,5.16
2018-12-24T03:23:23.118Z,4.5
2018-12-24T03:29:18.133Z,6.02
2018-12-24T03:35:13.135Z,4.67
2018-12-24T03:41:08.132Z,5.99
2018-12-24T03:47:03.129Z,5.04
2018-12-24T03:52:58.137Z,4.46
2018-12-24T03:58:53.155Z,5.66
2018-12-24T04:04:48.140Z,5.24
2018-12-24T04:10:43.156Z,5.32
2018-12-24T04:16:38.137Z,5.45
2018-12-24T04:22:33.144Z,5.26
2018-12-24T04:28:28.173Z,5.65
2018-12-24T04:34:23.170Z,5.59
2018-12-24T04:40:18.190Z,6.02
2018-12-24T04:46:13.173Z,6.09
2018-12-24T04:52:08.173Z,6.46
2018-12-24T04:58:03.182Z,7.1
2018-12-24T05:03:58.169Z,7.37
2018-12-24T05:09:53.187Z,7.34
2018-12-24T05:15:48.173Z,9.09
2018-12-24T05:21:43.180Z,7.98
2018-12-24T05:27:38.181Z,8.23
2018-12-24T05:33:33.199Z,8.32
2018-12-24T05:39:28.184Z,7.43
2018-12-24T05:45:23.193Z,7.72
2018-12-24T05:51:18.185Z,8.12
2018-12-24T05:57:13.191Z,7.3
2018-12-24T06:03:08.191Z,6.96
2018-12-24T06:09:03.202Z,7.1
2018-12-24T06:14:58.266Z,6.54
2018-12-24T06:20:53.214Z,6.74
2018-12-24T06:26:48.251Z,6.72
2018-12-24T06:32:43.223Z,6.65
2018-12-24T06:38:38.231Z,6.49
2018-12-24T06:44:33.265Z,6.67
2018-12-24T06:50:28.255Z,6.01
2018-12-24T06:56:23.304Z,6.33
2018-12-24T07:02:18.227Z,6.28
2018-12-24T07:08:13.258Z,7.42
2018-12-24T07:14:15.336Z,8.59
2018-12-24T07:20:03.284Z,8.08
2018-12-24T07:25:58.273Z,10.3
2018-12-24T07:31:53.269Z,8.82
2018-12-24T07:37:48.278Z,8.67
2018-12-24T07:43:43.255Z,8.36
2018-12-24T07:49:38.257Z,8.99
2018-12-24T07:55:33.269Z,8.03
2018-12-24T08:01:28.267Z,9.1
2018-12-24T08:07:23.270Z,7.95
2018-12-24T08:13:18.258Z,8.88
2018-12-24T08:19:13.293Z,9.23
2018-12-24T08:25:08.313Z,9.02
2018-12-24T08:31:03.281Z,8.48
2018-12-24T08:36:58.297Z,8.83
2018-12-24T08:42:53.275Z,7.9
2018-12-24T08:48:48.298Z,7.98
2018-12-24T08:54:43.276Z,14.19
2018-12-24T09:00:38.370Z,13.57
2018-12-24T09:06:33.364Z,8
2018-12-24T09:12:28.299Z,7.12
2018-12-24T09:18:23.332Z,9.88
2018-12-24T09:24:18.313Z,8.34
2018-12-24T09:30:13.410Z,9.57
2018-12-24T09:36:08.373Z,7.79
2018-12-24T09:42:03.371Z,10.54
2018-12-24T09:47:58.350Z,9.07
2018-12-24T09:53:53.334Z,7.89
2018-12-24T09:59:48.341Z,8.76
2018-12-24T10:05:43.346Z,10.4
2018-12-24T10:11:38.361Z,31.28
2018-12-24T10:17:33.339Z,7.18
2018-12-24T10:23:28.348Z,9.64
2018-12-24T10:29:23.332Z,7.86
2018-12-24T10:35:18.392Z,7.87
2018-12-24T10:41:13.355Z,9.9
2018-12-24T10:47:08.336Z,11.62
2018-12-24T10:53:03.384Z,10.73
2018-12-24T10:58:58.344Z,6.96
2018-12-24T11:04:53.364Z,9.5
2018-12-24T11:10:48.372Z,7.89
2018-12-24T11:16:43.385Z,6.57
2018-12-24T11:22:38.383Z,9.12
2018-12-24T11:28:33.351Z,7.96
2018-12-24T11:34:28.417Z,18.87
2018-12-24T11:40:23.388Z,10.83
2018-12-24T11:46:18.394Z,7.98
2018-12-24T11:52:13.390Z,16.73
2018-12-24T11:58:13.179Z,9.28
2018-12-24T12:04:03.404Z,11.99
2018-12-24T12:09:58.409Z,9.5
2018-12-24T12:15:53.402Z,13.44
2018-12-24T12:21:48.410Z,10.69
2018-12-24T12:27:43.395Z,11.52
2018-12-24T12:33:38.461Z,7.32
2018-12-24T12:39:33.430Z,7.28
2018-12-24T12:45:28.439Z,8.79
2018-12-24T12:51:23.425Z,7.78
2018-12-24T12:57:18.410Z,10.96
2018-12-24T13:03:13.414Z,8.69
2018-12-24T13:09:08.416Z,8.57
2018-12-24T13:15:03.434Z,10.21
2018-12-24T13:20:58.445Z,11.58
2018-12-24T13:26:53.439Z,10.48
2018-12-24T13:32:48.453Z,11.26
2018-12-24T13:38:43.458Z,11.26
2018-12-24T13:44:38.448Z,10.73
2018-12-24T13:50:33.457Z,10.1
2018-12-24T13:56:28.449Z,9.46
2018-12-24T14:02:23.455Z,12.61
2018-12-24T14:08:18.451Z,8.32
2018-12-24T14:14:13.457Z,9.28
2018-12-24T14:20:08.456Z,10.4
2018-12-24T14:26:03.458Z,13.83
2018-12-24T14:31:58.462Z,9.87
2018-12-24T14:37:53.474Z,10.6
2018-12-24T14:43:48.490Z,9.22
2018-12-24T14:49:43.493Z,8.33
2018-12-24T14:55:38.506Z,7.64
2018-12-24T15:01:33.482Z,7.23
2018-12-24T15:07:28.473Z,10.26
2018-12-24T15:13:23.537Z,11.03
2018-12-24T15:19:18.499Z,9.88
2018-12-24T15:25:13.515Z,20.61
2018-12-24T15:31:08.500Z,17.18
2018-12-24T15:37:03.502Z,32.09
2018-12-24T15:42:58.538Z,22.18
2018-12-24T15:48:53.517Z,14.44
2018-12-24T15:54:48.518Z,26.97
2018-12-24T16:00:43.513Z,29.81
2018-12-24T16:06:38.557Z,24.61
2018-12-24T16:12:33.564Z,21.29
2018-12-24T16:18:28.558Z,23.05
2018-12-24T16:24:23.523Z,15.86
2018-12-24T16:30:18.623Z,17.38
2018-12-24T16:36:13.536Z,15.22
2018-12-24T16:42:08.572Z,17.94
2018-12-24T16:48:03.539Z,22.94
2018-12-24T16:53:58.561Z,12.77
2018-12-24T16:59:53.548Z,31.3
2018-12-24T17:05:48.565Z,35.47
2018-12-24T17:11:43.565Z,24.99
2018-12-24T17:17:38.556Z,13.28
2018-12-24T17:23:33.577Z,11.05
2018-12-24T17:29:28.595Z,14.4
2018-12-24T17:35:23.564Z,27.34
2018-12-24T17:41:18.568Z,17.36
2018-12-24T17:47:16.307Z,7.6
2018-12-24T17:53:08.649Z,3.37
2018-12-24T17:59:03.613Z,3.19
2018-12-24T18:04:58.599Z,5.26
2018-12-24T18:10:53.560Z,10.63
2018-12-24T18:16:48.593Z,10.25
2018-12-24T18:22:43.580Z,33.88
2018-12-24T18:28:38.596Z,16.28
2018-12-24T18:34:33.612Z,15.13
2018-12-24T18:40:28.611Z,3.6
2018-12-24T18:46:23.597Z,4.15
2018-12-24T18:52:18.606Z,6
2018-12-24T18:58:13.633Z,3.44
2018-12-24T19:04:08.604Z,2.37
2018-12-24T19:10:03.630Z,2.98
2018-12-24T19:15:58.601Z,5.58
2018-12-24T19:21:53.608Z,3.19
2018-12-24T19:27:48.650Z,5.59
2018-12-24T19:33:43.662Z,9.6
2018-12-24T19:39:38.619Z,5.16
2018-12-24T19:45:33.611Z,3.84
2018-12-24T19:51:28.614Z,3.66
2018-12-24T19:57:23.663Z,2.85
2018-12-24T20:03:18.642Z,4.08
2018-12-24T20:09:13.669Z,10.17
2018-12-24T20:15:08.641Z,5.43
2018-12-24T20:21:03.699Z,5.95
2018-12-24T20:26:58.675Z,7.04
2018-12-24T20:32:53.671Z,5.01
2018-12-24T20:38:48.745Z,3.36
2018-12-24T20:44:43.700Z,6.1
2018-12-24T20:50:38.805Z,2.02
2018-12-24T20:56:33.663Z,4.01
2018-12-24T21:02:28.652Z,6.28
2018-12-24T21:08:23.673Z,6.14
2018-12-24T21:14:18.698Z,2.28
2018-12-24T21:20:13.699Z,3.47
2018-12-24T21:26:08.706Z,5.98
2018-12-24T21:32:03.715Z,3.79
2018-12-24T21:37:58.688Z,3.46
2018-12-24T21:43:53.691Z,6.28
2018-12-24T21:49:48.725Z,4.5
2018-12-24T21:55:43.730Z,3.68
2018-12-24T22:01:38.714Z,3.22
2018-12-24T22:07:33.736Z,4.95
2018-12-24T22:13:28.703Z,4.31
2018-12-24T22:19:23.719Z,4.48
2018-12-24T22:25:18.758Z,2.73
2018-12-24T22:31:13.716Z,4.57
2018-12-24T22:37:08.872Z,5.21
2018-12-24T22:43:03.765Z,3.66
2018-12-24T22:48:58.720Z,2.47
2018-12-24T22:54:53.729Z,1.75
2018-12-24T23:00:48.716Z,2.43
2018-12-24T23:06:43.729Z,2.12
2018-12-24T23:12:38.729Z,2.64
2018-12-24T23:18:33.794Z,2.71
2018-12-24T23:24:28.727Z,2.56
2018-12-24T23:30:23.756Z,3.13
2018-12-24T23:36:18.741Z,3.11
2018-12-24T23:42:13.757Z,2.62
2018-12-24T23:48:08.760Z,5.14
2018-12-24T23:54:03.791Z,2.95
2018-12-24T23:59:58.794Z,2.74
